Time;durP1;ratioP1;P1;durP2;ratioP2;P2;SDS_P1;SDS_P2;PMS_P1;PMS_P2;Temp;Humidity;BMP_temperature;BMP_pressure;BME280_temperature;BME280_humidity;BME280_pressure;Samples;Min_cycle;Max_cycle;Signal;HPM_P1;HPM_P2
2021/09/20 00:01:13;;;;;;;5.43;4.13;;;14.90;99.90;;;;;;5135239;27;20793;-60
2021/09/20 00:03:40;;;;;;;3.63;2.97;;;14.90;99.90;;;;;;5134581;27;20459;-58
2021/09/20 00:06:08;;;;;;;4.47;3.30;;;14.90;99.80;;;;;;5134834;27;20466;-60
2021/09/20 00:08:35;;;;;;;3.30;3.00;;;14.90;99.60;;;;;;5134363;27;20470;-59
2021/09/20 00:11:02;;;;;;;6.07;3.63;;;14.90;99.40;;;;;;5135046;27;20478;-59
2021/09/20 00:13:29;;;;;;;3.40;3.10;;;14.90;99.30;;;;;;5134591;27;20463;-59
2021/09/20 00:15:56;;;;;;;4.80;3.37;;;14.90;99.40;;;;;;5134767;27;20478;-59
2021/09/20 00:18:23;;;;;;;3.30;3.00;;;14.90;99.50;;;;;;5134515;27;20463;-59
2021/09/20 00:20:50;;;;;;;3.73;2.80;;;14.90;99.70;;;;;;5134709;27;20468;-60
2021/09/20 00:23:18;;;;;;;2.97;2.73;;;14.80;99.70;;;;;;5131502;27;20790;-60
2021/09/20 00:25:45;;;;;;;3.83;3.40;;;14.90;99.90;;;;;;5134489;27;21238;-59
2021/09/20 00:28:12;;;;;;;3.50;3.00;;;14.90;99.90;;;;;;5134475;27;20467;-59
2021/09/20 00:30:40;;;;;;;4.53;3.70;;;14.80;99.90;;;;;;5134172;27;20471;-59
2021/09/20 00:33:07;;;;;;;4.50;3.70;;;14.80;99.90;;;;;;5134449;27;21011;-59
2021/09/20 00:35:34;;;;;;;3.00;2.67;;;14.80;99.90;;;;;;5133999;27;20315;-59
2021/09/20 00:38:01;;;;;;;4.70;3.30;;;14.80;99.90;;;;;;5134554;27;20220;-60
2021/09/20 00:40:29;;;;;;;3.37;2.90;;;14.80;99.90;;;;;;5133695;27;20478;-58
2021/09/20 00:42:56;;;;;;;4.97;3.23;;;14.80;99.90;;;;;;5134286;27;20451;-59
2021/09/20 00:45:23;;;;;;;5.15;3.25;;;14.80;99.90;;;;;;5133837;27;20467;-59
2021/09/20 00:47:50;;;;;;;3.80;2.97;;;14.80;99.90;;;;;;5134328;27;20217;-60
2021/09/20 00:50:17;;;;;;;5.07;4.05;;;14.80;99.90;;;;;;5120969;27;20469;-60
2021/09/20 00:52:43;;;;;;;3.20;2.90;;;14.80;99.90;;;;;;5133996;27;20224;-59
2021/09/20 00:55:12;;;;;;;4.63;2.97;;;14.70;99.90;;;;;;5134129;27;20235;-59
2021/09/20 00:57:41;;;;;;;3.72;3.10;;;14.70;99.90;;;;;;5133569;27;20467;-60
2021/09/20 01:00:09;;;;;;;4.85;3.80;;;14.70;99.90;;;;;;5134097;27;20225;-60
2021/09/20 01:02:36;;;;;;;4.10;3.33;;;14.70;99.90;;;;;;5133377;27;20251;-60
2021/09/20 01:05:04;;;;;;;6.63;3.83;;;14.70;99.90;;;;;;5133998;27;20459;-60
2021/09/20 01:07:31;;;;;;;6.80;3.80;;;14.70;99.90;;;;;;5133515;27;20478;-60
2021/09/20 01:09:57;;;;;;;3.95;3.30;;;14.70;99.90;;;;;;5133788;27;20474;-59
2021/09/20 01:12:25;;;;;;;4.83;3.70;;;14.70;99.90;;;;;;5133304;27;20228;-60
2021/09/20 01:14:56;;;;;;;4.80;4.00;;;14.70;99.90;;;;;;5133758;27;20463;-59
2021/09/20 01:17:23;;;;;;;3.50;3.20;;;14.70;99.90;;;;;;5133885;27;20815;-59
2021/09/20 01:19:50;;;;;;;3.10;2.90;;;14.70;99.90;;;;;;5133204;27;20232;-60
2021/09/20 01:22:18;;;;;;;2.90;2.70;;;14.70;99.90;;;;;;5130240;27;20464;-59
2021/09/20 01:24:47;;;;;;;5.05;3.60;;;14.70;99.90;;;;;;5131429;27;20239;-59
2021/09/20 01:27:19;;;;;;;5.28;3.15;;;14.70;99.90;;;;;;5133739;27;20235;-60
2021/09/20 01:29:46;;;;;;;5.17;3.20;;;14.70;99.90;;;;;;5133183;27;20232;-60
2021/09/20 01:32:13;;;;;;;3.90;3.50;;;14.70;99.90;;;;;;5133722;27;20463;-60
2021/09/20 01:34:41;;;;;;;3.47;3.03;;;14.70;99.90;;;;;;5133026;27;20243;-60
2021/09/20 01:37:07;;;;;;;3.38;3.05;;;14.70;99.90;;;;;;5133683;27;20702;-60
2021/09/20 01:39:37;;;;;;;6.13;3.35;;;14.70;99.90;;;;;;5132940;27;20229;-60
2021/09/20 01:42:05;;;;;;;3.72;3.30;;;14.70;99.90;;;;;;5133617;27;20224;-60
2021/09/20 01:44:32;;;;;;;5.40;3.23;;;14.70;99.90;;;;;;5125829;27;20214;-60
2021/09/20 01:46:59;;;;;;;2.93;2.50;;;14.80;99.90;;;;;;5131620;27;20459;-60
2021/09/20 01:49:28;;;;;;;4.85;3.05;;;14.80;99.90;;;;;;5130167;27;20469;-60
2021/09/20 01:51:55;;;;;;;4.23;3.33;;;14.80;99.90;;;;;;5132819;27;20956;-60
2021/09/20 01:54:23;;;;;;;2.70;2.50;;;14.80;99.90;;;;;;5137681;27;20477;-60
2021/09/20 01:56:50;;;;;;;3.05;2.85;;;14.80;99.90;;;;;;5137077;27;20463;-60
2021/09/20 01:59:18;;;;;;;3.57;3.27;;;14.70;99.90;;;;;;5137598;27;20242;-60
2021/09/20 02:01:46;;;;;;;4.80;3.97;;;14.70;99.90;;;;;;5136945;27;21314;-60
2021/09/20 02:04:12;;;;;;;4.97;3.90;;;14.70;99.90;;;;;;5137400;27;20471;-58
2021/09/20 02:06:39;;;;;;;3.40;3.10;;;14.70;99.90;;;;;;5136888;27;20959;-59
2021/09/20 02:09:10;;;;;;;9.02;3.20;;;14.70;99.90;;;;;;5137292;27;20789;-59
2021/09/20 02:11:38;;;;;;;4.27;3.60;;;14.70;99.90;;;;;;5136851;27;20228;-59
2021/09/20 02:14:05;;;;;;;3.20;2.90;;;14.70;99.90;;;;;;5137479;27;21051;-59
2021/09/20 02:16:33;;;;;;;4.63;3.80;;;14.60;99.90;;;;;;5137116;27;20222;-59
2021/09/20 02:19:01;;;;;;;7.38;3.97;;;14.60;99.90;;;;;;5136867;27;20466;-59
2021/09/20 02:21:28;;;;;;;4.10;3.70;;;14.60;99.90;;;;;;5136925;27;20224;-58
2021/09/20 02:23:54;;;;;;;6.30;3.90;;;14.60;99.90;;;;;;5130546;27;20218;-59
2021/09/20 02:26:22;;;;;;;4.07;2.97;;;14.60;99.90;;;;;;5136985;27;20477;-59
2021/09/20 02:28:49;;;;;;;3.85;3.28;;;14.60;99.90;;;;;;5136703;27;20230;-59
2021/09/20 02:31:16;;;;;;;3.57;3.23;;;14.60;99.90;;;;;;5136758;27;20224;-59
2021/09/20 02:33:44;;;;;;;3.87;2.90;;;14.60;99.90;;;;;;5136588;27;20540;-59
2021/09/20 02:36:11;;;;;;;5.18;4.30;;;14.60;99.90;;;;;;5136710;27;20471;-59
2021/09/20 02:38:39;;;;;;;3.80;3.40;;;14.50;99.90;;;;;;5136160;27;20228;-59
2021/09/20 02:41:06;;;;;;;3.70;3.40;;;14.50;99.90;;;;;;5136709;27;20234;-59
2021/09/20 02:43:34;;;;;;;4.03;3.73;;;14.50;99.90;;;;;;5136689;27;20826;-60
2021/09/20 02:46:01;;;;;;;6.53;2.90;;;14.50;99.90;;;;;;5134979;27;20472;-59
2021/09/20 02:48:28;;;;;;;5.10;3.60;;;14.50;99.90;;;;;;5136574;27;20464;-59
2021/09/20 02:50:56;;;;;;;3.77;3.10;;;14.50;99.90;;;;;;5136074;27;20468;-59
2021/09/20 02:53:23;;;;;;;4.43;4.00;;;14.50;99.90;;;;;;5136461;27;20464;-59
2021/09/20 02:55:50;;;;;;;3.53;3.17;;;14.50;99.90;;;;;;5136129;27;20964;-59
2021/09/20 02:58:17;;;;;;;3.73;3.10;;;14.60;99.90;;;;;;5136317;27;20222;-59
2021/09/20 03:00:45;;;;;;;3.60;3.10;;;14.60;99.90;;;;;;5136132;27;20463;-59
2021/09/20 03:03:12;;;;;;;3.97;3.50;;;14.60;99.90;;;;;;5136234;27;20478;-59
2021/09/20 03:05:39;;;;;;;5.65;3.03;;;14.60;99.90;;;;;;5136239;27;20468;-59
2021/09/20 03:08:09;;;;;;;4.97;3.67;;;14.60;99.90;;;;;;5135820;27;20790;-59
2021/09/20 03:10:36;;;;;;;5.20;4.20;;;14.60;99.90;;;;;;5136306;27;20463;-59
2021/09/20 03:13:03;;;;;;;4.30;3.10;;;14.60;99.90;;;;;;5135687;27;20466;-59
2021/09/20 03:15:30;;;;;;;4.33;3.83;;;14.60;99.90;;;;;;5136022;27;20467;-59
2021/09/20 03:17:59;;;;;;;4.10;3.20;;;14.60;99.90;;;;;;5135714;27;20477;-59
2021/09/20 03:20:25;;;;;;;3.90;3.40;;;14.60;99.90;;;;;;5135875;27;20468;-60
2021/09/20 03:22:52;;;;;;;4.90;2.90;;;14.60;99.90;;;;;;5132668;27;20463;-58
2021/09/20 03:25:21;;;;;;;4.00;3.30;;;14.60;99.90;;;;;;5136148;27;20482;-59
2021/09/20 03:27:48;;;;;;;4.43;3.23;;;14.60;99.90;;;;;;5135398;27;20467;-58
2021/09/20 03:30:16;;;;;;;3.90;3.43;;;14.60;99.90;;;;;;5135859;27;20482;-59
2021/09/20 03:32:44;;;;;;;4.00;3.50;;;14.60;99.90;;;;;;5135348;27;20542;-58
2021/09/20 03:35:14;;;;;;;3.13;2.87;;;14.60;99.90;;;;;;5135603;27;20470;-58
2021/09/20 03:37:41;;;;;;;5.60;3.47;;;14.60;99.90;;;;;;5122349;27;20463;-60
2021/09/20 03:40:09;;;;;;;3.73;3.13;;;14.60;99.90;;;;;;5135224;27;20470;-59
2021/09/20 03:42:37;;;;;;;3.30;2.97;;;14.60;99.90;;;;;;5135486;27;20472;-59
2021/09/20 03:45:05;;;;;;;5.00;3.60;;;14.60;99.90;;;;;;5134983;27;20804;-59
2021/09/20 03:47:32;;;;;;;3.83;3.53;;;14.60;99.90;;;;;;5135603;27;20801;-59
2021/09/20 03:49:59;;;;;;;4.10;3.70;;;14.60;99.90;;;;;;5125405;27;20980;-59
2021/09/20 03:52:25;;;;;;;3.57;3.27;;;14.60;99.90;;;;;;5135589;27;20984;-60
2021/09/20 03:54:52;;;;;;;4.43;3.47;;;14.60;99.90;;;;;;5134743;27;20477;-60
2021/09/20 03:57:19;;;;;;;3.40;3.10;;;14.60;99.90;;;;;;5135280;27;20814;-60
2021/09/20 03:59:47;;;;;;;5.43;3.17;;;14.60;99.90;;;;;;5134662;27;20463;-59
2021/09/20 04:02:14;;;;;;;3.13;2.90;;;14.60;99.90;;;;;;5135345;27;20465;-60
2021/09/20 04:04:41;;;;;;;4.03;3.50;;;14.60;99.90;;;;;;5134859;27;20229;-59
2021/09/20 04:07:08;;;;;;;3.60;3.30;;;14.60;99.90;;;;;;5134675;27;20463;-59
2021/09/20 04:09:37;;;;;;;4.33;3.47;;;14.60;99.90;;;;;;5134235;27;20489;-58
2021/09/20 04:12:04;;;;;;;3.70;3.40;;;14.60;99.90;;;;;;5134465;27;20467;-59
2021/09/20 04:14:31;;;;;;;3.50;3.20;;;14.50;99.90;;;;;;5135050;27;20470;-58
2021/09/20 04:16:59;;;;;;;3.60;2.90;;;14.60;99.90;;;;;;5134379;27;20468;-59
2021/09/20 04:19:26;;;;;;;4.00;3.30;;;14.60;99.90;;;;;;5134773;27;20843;-59
2021/09/20 04:21:53;;;;;;;3.90;3.60;;;14.60;99.90;;;;;;5134379;27;20463;-59
2021/09/20 04:24:20;;;;;;;4.70;4.00;;;14.60;99.90;;;;;;5133210;27;20867;-59
2021/09/20 04:26:47;;;;;;;3.67;3.37;;;14.60;99.90;;;;;;5134286;27;20467;-59
2021/09/20 04:29:13;;;;;;;3.87;3.53;;;14.60;99.90;;;;;;5134492;27;20474;-60
2021/09/20 04:31:40;;;;;;;3.73;3.17;;;14.60;99.90;;;;;;5134700;27;20806;-59
2021/09/20 04:34:08;;;;;;;4.15;3.85;;;14.60;99.90;;;;;;5134155;27;20464;-59
2021/09/20 04:36:35;;;;;;;5.97;4.13;;;14.60;99.90;;;;;;5134557;27;20262;-58
2021/09/20 04:39:02;;;;;;;5.80;4.03;;;14.60;99.90;;;;;;5133901;27;20478;-58
2021/09/20 04:41:29;;;;;;;4.13;3.78;;;14.60;99.90;;;;;;5134540;27;20474;-59
2021/09/20 04:43:56;;;;;;;4.57;3.60;;;14.60;99.90;;;;;;5127735;27;20222;-59
2021/09/20 04:46:23;;;;;;;4.67;3.30;;;14.60;99.90;;;;;;5134502;27;20540;-59
2021/09/20 04:48:50;;;;;;;3.43;3.13;;;14.60;99.90;;;;;;5131569;27;20474;-59
2021/09/20 04:51:18;;;;;;;4.17;3.03;;;14.60;99.90;;;;;;5127076;27;20462;-59
2021/09/20 04:53:45;;;;;;;7.13;3.90;;;14.60;99.90;;;;;;5134044;27;20459;-59
2021/09/20 04:56:13;;;;;;;4.07;3.27;;;14.60;99.90;;;;;;5133741;27;20962;-59
2021/09/20 04:58:40;;;;;;;4.07;3.67;;;14.60;99.90;;;;;;5134208;27;20468;-59
2021/09/20 05:01:07;;;;;;;4.03;3.20;;;14.60;99.90;;;;;;5133482;27;20467;-59
2021/09/20 05:03:34;;;;;;;3.80;3.50;;;14.60;99.90;;;;;;5134036;27;20467;-59
2021/09/20 05:06:01;;;;;;;3.70;3.40;;;14.50;99.90;;;;;;5133479;27;20464;-60
2021/09/20 05:08:29;;;;;;;2.90;2.70;;;14.50;99.90;;;;;;5133846;27;20477;-60
2021/09/20 05:10:56;;;;;;;4.97;3.05;;;14.50;99.90;;;;;;5133466;27;20229;-59
2021/09/20 05:13:22;;;;;;;7.43;4.17;;;14.50;99.90;;;;;;5134059;27;20547;-58
2021/09/20 05:15:49;;;;;;;3.70;3.00;;;14.50;99.90;;;;;;5133833;27;20468;-59
2021/09/20 05:18:16;;;;;;;3.70;3.40;;;14.50;99.90;;;;;;5133689;27;21250;-59
2021/09/20 05:20:43;;;;;;;3.37;2.60;;;14.50;99.90;;;;;;5132734;27;20462;-60
2021/09/20 05:23:10;;;;;;;4.80;3.73;;;14.40;99.90;;;;;;5131142;27;20459;-59
2021/09/20 05:25:38;;;;;;;6.20;3.23;;;14.50;99.90;;;;;;5129430;27;20478;-59
2021/09/20 05:28:05;;;;;;;3.90;2.70;;;14.40;99.90;;;;;;5133020;27;20514;-61
2021/09/20 05:30:32;;;;;;;5.00;3.67;;;14.40;99.90;;;;;;5133789;27;20569;-59
2021/09/20 05:32:59;;;;;;;6.57;3.40;;;14.40;99.90;;;;;;5133146;27;21136;-59
2021/09/20 05:35:27;;;;;;;4.83;3.50;;;14.40;99.90;;;;;;5133427;27;20313;-61
2021/09/20 05:37:55;;;;;;;6.20;5.50;;;14.40;99.90;;;;;;5133183;27;20471;-59
2021/09/20 05:40:23;;;;;;;6.60;4.30;;;14.40;99.90;;;;;;5133290;27;20800;-60
2021/09/20 05:42:56;;;;;;;5.10;4.65;;;14.40;99.90;;;;;;5133535;27;20217;-60
2021/09/20 05:45:24;;;;;;;3.90;3.42;;;14.40;99.90;;;;;;5133286;27;20232;-59
2021/09/20 05:47:51;;;;;;;5.38;4.47;;;14.40;99.90;;;;;;5133479;27;20225;-59
2021/09/20 05:50:19;;;;;;;5.80;3.70;;;14.40;99.90;;;;;;5132449;27;20315;-60
2021/09/20 05:52:47;;;;;;;5.95;3.88;;;14.40;99.90;;;;;;5133657;27;20214;-60
2021/09/20 05:55:15;;;;;;;4.30;3.90;;;14.40;99.90;;;;;;5119570;27;20226;-60
2021/09/20 05:57:42;;;;;;;5.35;3.95;;;14.40;99.90;;;;;;5133375;27;20217;-60
2021/09/20 06:00:11;;;;;;;5.90;3.80;;;14.40;99.90;;;;;;5133119;27;20593;-60
2021/09/20 06:02:42;;;;;;;4.07;3.50;;;14.50;99.90;;;;;;5133054;27;20458;-60
2021/09/20 06:05:12;;;;;;;4.70;3.72;;;14.50;99.90;;;;;;5132925;27;20563;-60
2021/09/20 06:07:39;;;;;;;5.18;4.10;;;14.50;99.90;;;;;;5133568;27;20314;-59
2021/09/20 06:10:07;;;;;;;4.47;3.70;;;14.50;99.90;;;;;;5132712;27;20563;-60
2021/09/20 06:12:34;;;;;;;4.40;4.00;;;14.60;99.90;;;;;;5133090;27;20221;-59
2021/09/20 06:15:00;;;;;;;4.97;4.47;;;14.60;99.90;;;;;;5132909;27;20477;-58
2021/09/20 06:17:29;;;;;;;5.07;3.80;;;14.60;99.90;;;;;;5132929;27;20463;-59
2021/09/20 06:19:56;;;;;;;6.03;3.77;;;14.70;99.90;;;;;;5133056;27;20225;-59
2021/09/20 06:22:22;;;;;;;4.60;4.20;;;14.70;99.90;;;;;;5131866;27;20528;-59
2021/09/20 06:24:49;;;;;;;5.95;5.15;;;14.70;99.90;;;;;;5132159;27;20467;-59
2021/09/20 06:27:16;;;;;;;4.50;4.10;;;14.70;99.90;;;;;;5129840;27;20227;-60
2021/09/20 06:29:43;;;;;;;4.60;4.20;;;14.80;99.90;;;;;;5133178;27;20224;-59
2021/09/20 06:32:10;;;;;;;6.70;4.28;;;14.70;99.90;;;;;;5134297;27;20474;-59
2021/09/20 06:34:38;;;;;;;4.03;3.58;;;14.80;99.90;;;;;;5137023;27;20226;-59
2021/09/20 06:37:05;;;;;;;7.13;5.63;;;14.80;99.90;;;;;;5136470;27;20220;-60
2021/09/20 06:39:33;;;;;;;5.87;5.33;;;14.90;99.90;;;;;;5136598;27;20682;-60
2021/09/20 06:42:01;;;;;;;5.73;4.90;;;14.90;99.90;;;;;;5136798;27;20467;-60
2021/09/20 06:44:28;;;;;;;9.85;4.47;;;14.90;99.90;;;;;;5136393;27;20555;-60
2021/09/20 06:46:56;;;;;;;5.43;4.37;;;15.00;99.90;;;;;;5136553;27;20301;-59
2021/09/20 06:49:23;;;;;;;4.90;4.40;;;15.00;99.90;;;;;;5129305;27;20974;-58
2021/09/20 06:51:51;;;;;;;4.80;4.03;;;15.00;99.90;;;;;;5135411;27;20232;-60
2021/09/20 06:54:19;;;;;;;7.33;4.40;;;15.10;99.90;;;;;;5136153;27;20479;-61
2021/09/20 06:56:45;;;;;;;5.23;4.20;;;15.10;99.90;;;;;;5136410;27;20478;-60
2021/09/20 06:59:13;;;;;;;4.40;3.60;;;15.10;99.90;;;;;;5136116;27;20471;-60
2021/09/20 07:01:40;;;;;;;4.33;3.80;;;15.10;99.90;;;;;;5136170;27;20463;-59
2021/09/20 07:04:07;;;;;;;4.00;3.70;;;15.20;99.90;;;;;;5135818;27;20463;-60
2021/09/20 07:06:34;;;;;;;4.97;4.57;;;15.20;99.90;;;;;;5136222;27;20567;-60
2021/09/20 07:09:03;;;;;;;6.73;4.07;;;15.30;99.90;;;;;;5136136;27;20466;-60
2021/09/20 07:11:37;;;;;;;4.30;3.90;;;15.30;99.90;;;;;;5122571;27;20459;-59
2021/09/20 07:14:04;;;;;;;4.50;3.90;;;15.40;99.90;;;;;;5136269;27;20516;-60
2021/09/20 07:16:31;;;;;;;5.60;4.27;;;15.40;99.90;;;;;;5135721;27;20462;-60
2021/09/20 07:18:58;;;;;;;5.40;3.20;;;15.50;99.90;;;;;;5135974;27;20477;-60
2021/09/20 07:21:25;;;;;;;4.73;4.33;;;15.50;99.90;;;;;;5135696;27;20456;-60
2021/09/20 07:23:54;;;;;;;4.03;3.40;;;15.50;99.90;;;;;;5134398;27;20466;-60
2021/09/20 07:26:23;;;;;;;4.50;4.10;;;15.60;99.90;;;;;;5130425;27;20531;-59
2021/09/20 07:28:50;;;;;;;4.17;3.87;;;15.60;99.90;;;;;;5135910;27;20464;-60
2021/09/20 07:31:17;;;;;;;3.93;3.63;;;15.60;99.90;;;;;;5135400;27;20926;-60
2021/09/20 07:33:44;;;;;;;4.50;4.07;;;15.70;99.90;;;;;;5135711;27;20472;-60
2021/09/20 07:36:11;;;;;;;3.70;3.40;;;15.70;99.90;;;;;;5135319;27;21121;-60
2021/09/20 07:38:39;;;;;;;4.80;4.23;;;15.70;99.90;;;;;;5135402;27;20455;-60
2021/09/20 07:41:07;;;;;;;5.07;4.20;;;15.70;99.90;;;;;;5135867;27;20827;-59
2021/09/20 07:43:36;;;;;;;4.60;3.70;;;15.70;99.90;;;;;;5134236;27;20469;-60
2021/09/20 07:46:03;;;;;;;5.90;4.60;;;15.70;99.90;;;;;;5135529;27;20467;-60
2021/09/20 07:48:30;;;;;;;4.53;4.13;;;15.80;99.90;;;;;;5134905;27;20775;-61
2021/09/20 07:50:57;;;;;;;3.93;3.53;;;15.80;99.90;;;;;;5127010;27;20625;-60
2021/09/20 07:53:26;;;;;;;3.77;3.47;;;15.90;99.90;;;;;;5134744;27;20464;-60
2021/09/20 07:55:53;;;;;;;4.70;3.63;;;15.80;99.90;;;;;;5135618;27;20497;-60
2021/09/20 07:58:23;;;;;;;5.93;4.67;;;15.90;99.80;;;;;;5134704;27;20485;-60
2021/09/20 08:00:51;;;;;;;4.93;4.40;;;16.00;99.80;;;;;;5135288;27;20459;-60
2021/09/20 08:03:18;;;;;;;4.03;3.50;;;16.00;99.40;;;;;;5134431;27;20988;-60
2021/09/20 08:05:45;;;;;;;5.23;3.50;;;16.10;99.40;;;;;;5135143;27;20460;-60
2021/09/20 08:08:12;;;;;;;4.33;3.87;;;16.10;99.20;;;;;;5121067;27;20464;-57
2021/09/20 08:10:39;;;;;;;3.00;2.60;;;16.20;99.00;;;;;;5134974;27;20469;-60
2021/09/20 08:13:08;;;;;;;3.93;3.10;;;16.20;99.00;;;;;;5135052;27;20536;-59
2021/09/20 08:15:35;;;;;;;6.60;3.20;;;16.30;99.00;;;;;;5134301;27;20539;-59
2021/09/20 08:18:04;;;;;;;4.50;4.20;;;16.30;98.90;;;;;;5134986;27;20480;-59
2021/09/20 08:20:32;;;;;;;4.77;4.17;;;16.30;98.50;;;;;;5134217;27;20460;-59
2021/09/20 08:22:58;;;;;;;3.77;3.00;;;16.40;98.60;;;;;;5134201;27;20463;-59
2021/09/20 08:25:26;;;;;;;5.27;3.87;;;16.50;98.70;;;;;;5130236;27;20471;-59
2021/09/20 08:27:53;;;;;;;5.50;3.20;;;16.50;98.70;;;;;;5134786;27;20470;-59
2021/09/20 08:30:22;;;;;;;4.00;3.27;;;16.60;98.70;;;;;;5134011;27;20965;-60
2021/09/20 08:32:49;;;;;;;4.43;4.03;;;16.60;98.70;;;;;;5134667;27;20490;-59
2021/09/20 08:35:17;;;;;;;5.07;3.30;;;16.70;98.80;;;;;;5133930;27;20477;-59
2021/09/20 08:37:44;;;;;;;5.30;3.50;;;16.70;98.20;;;;;;5134455;27;20460;-59
2021/09/20 08:40:12;;;;;;;3.87;3.57;;;16.80;98.10;;;;;;5134286;27;20554;-58
2021/09/20 08:42:43;;;;;;;4.20;3.80;;;16.80;97.80;;;;;;5134064;27;20463;-61
2021/09/20 08:45:13;;;;;;;6.07;4.57;;;16.80;97.70;;;;;;5134371;27;20460;-59
2021/09/20 08:47:43;;;;;;;6.43;4.23;;;16.80;97.80;;;;;;5133987;27;20462;-58
2021/09/20 08:50:11;;;;;;;3.77;3.43;;;16.90;97.80;;;;;;5134087;27;20953;-59
2021/09/20 08:52:40;;;;;;;6.90;3.60;;;16.90;97.20;;;;;;5133582;27;20897;-58
2021/09/20 08:55:09;;;;;;;4.53;3.87;;;16.90;97.00;;;;;;5134274;27;20800;-59
2021/09/20 08:57:37;;;;;;;3.70;3.40;;;16.90;96.80;;;;;;5133642;27;20936;-59
2021/09/20 09:00:06;;;;;;;5.40;3.40;;;17.00;96.70;;;;;;5133936;27;20482;-58
2021/09/20 09:02:33;;;;;;;4.07;3.50;;;17.00;96.70;;;;;;5133440;27;21016;-59
2021/09/20 09:05:13;;;;;;;5.30;3.77;;;17.10;96.50;;;;;;5133897;27;20968;-59
2021/09/20 09:07:44;;;;;;;4.07;3.20;;;17.20;96.30;;;;;;5120970;27;20455;-59
2021/09/20 09:10:12;;;;;;;6.67;3.53;;;17.20;96.30;;;;;;5133728;27;21128;-59
2021/09/20 09:12:39;;;;;;;3.03;2.80;;;17.20;96.20;;;;;;5133516;27;20466;-60
2021/09/20 09:15:09;;;;;;;5.87;4.27;;;17.30;96.30;;;;;;5133848;27;20470;-59
2021/09/20 09:17:41;;;;;;;3.60;3.30;;;17.30;95.90;;;;;;5133424;27;20468;-59
2021/09/20 09:20:11;;;;;;;3.60;3.30;;;17.40;95.40;;;;;;5133634;27;20486;-59
2021/09/20 09:22:41;;;;;;;4.70;3.23;;;17.40;95.10;;;;;;5126823;27;20546;-59
2021/09/20 09:25:11;;;;;;;3.90;3.30;;;17.50;95.10;;;;;;5127555;27;20802;-60
2021/09/20 09:27:39;;;;;;;5.20;3.50;;;17.50;95.10;;;;;;5124436;27;20463;-59
2021/09/20 09:30:10;;;;;;;3.17;2.87;;;17.50;94.60;;;;;;5133397;27;20485;-59
2021/09/20 09:32:38;;;;;;;3.87;2.73;;;17.40;94.40;;;;;;5133182;27;20809;-59
2021/09/20 09:35:08;;;;;;;4.37;3.97;;;17.50;94.40;;;;;;5133518;27;20953;-59
2021/09/20 09:37:36;;;;;;;5.33;3.00;;;17.50;94.50;;;;;;5133127;27;20550;-59
2021/09/20 09:40:17;;;;;;;3.33;3.07;;;17.50;94.40;;;;;;5133254;27;20478;-60
2021/09/20 09:42:44;;;;;;;4.13;3.10;;;17.50;94.40;;;;;;5133139;27;20447;-60
2021/09/20 09:45:17;;;;;;;3.40;3.10;;;17.50;94.30;;;;;;5133610;27;20957;-60
2021/09/20 09:47:45;;;;;;;3.93;3.53;;;17.50;94.30;;;;;;5133078;27;20885;-60
2021/09/20 09:50:13;;;;;;;6.10;3.80;;;17.50;94.30;;;;;;5130886;27;20546;-59
2021/09/20 09:52:40;;;;;;;3.83;3.40;;;17.50;94.40;;;;;;5132792;27;20455;-60
2021/09/20 09:55:09;;;;;;;3.87;3.40;;;17.60;94.70;;;;;;5133488;27;20957;-60
2021/09/20 09:57:37;;;;;;;4.10;3.70;;;17.60;94.70;;;;;;5132883;27;20547;-59
2021/09/20 10:00:07;;;;;;;3.03;2.80;;;17.60;94.60;;;;;;5133226;27;20471;-59
2021/09/20 10:02:36;;;;;;;2.80;2.60;;;17.60;94.60;;;;;;5132849;27;20969;-60
2021/09/20 10:05:05;;;;;;;3.17;2.80;;;17.60;94.60;;;;;;5133230;27;20464;-60
2021/09/20 10:07:34;;;;;;;3.47;2.70;;;17.70;94.50;;;;;;5122107;27;20478;-60
2021/09/20 10:10:04;;;;;;;3.23;2.93;;;17.60;94.40;;;;;;5137524;27;20919;-60
2021/09/20 10:12:31;;;;;;;4.10;3.80;;;17.70;94.40;;;;;;5136858;27;20794;-60
2021/09/20 10:15:01;;;;;;;4.17;3.00;;;17.70;94.40;;;;;;5137227;27;20469;-61
2021/09/20 10:17:30;;;;;;;4.40;2.50;;;17.70;93.70;;;;;;5136976;27;20463;-59
2021/09/20 10:19:58;;;;;;;4.23;3.03;;;17.70;93.50;;;;;;5137165;27;20461;-61
2021/09/20 10:22:25;;;;;;;3.50;3.20;;;17.70;93.40;;;;;;5132179;27;20452;-58
2021/09/20 10:24:55;;;;;;;2.80;2.60;;;17.80;93.20;;;;;;5131082;27;20953;-59
2021/09/20 10:27:25;;;;;;;5.33;4.20;;;17.80;93.00;;;;;;5125883;27;20579;-56
2021/09/20 10:29:56;;;;;;;3.53;3.23;;;17.80;93.00;;;;;;5136910;27;20485;-59
2021/09/20 10:32:27;;;;;;;4.17;3.37;;;17.80;93.00;;;;;;5136633;27;20463;-57
2021/09/20 10:35:21;;;;;;;3.63;3.30;;;17.80;93.10;;;;;;5136876;27;20462;-59
2021/09/20 10:37:48;;;;;;;3.17;2.87;;;17.80;93.10;;;;;;5136644;27;20466;-60
2021/09/20 10:40:15;;;;;;;2.90;2.63;;;17.80;93.20;;;;;;5136831;27;20463;-59
2021/09/20 10:43:08;;;;;;;3.40;2.93;;;17.90;93.30;;;;;;5136262;27;20466;-59
2021/09/20 10:45:50;;;;;;;4.80;3.57;;;17.90;93.40;;;;;;5136269;27;20793;-59
2021/09/20 10:48:33;;;;;;;3.13;2.80;;;17.90;93.50;;;;;;5136366;27;20467;-59
2021/09/20 10:51:03;;;;;;;4.47;3.80;;;17.80;93.40;;;;;;5134546;27;20460;-60
2021/09/20 10:53:38;;;;;;;5.47;3.40;;;17.80;93.40;;;;;;5136448;27;20481;-59
2021/09/20 10:56:19;;;;;;;4.60;2.97;;;17.90;93.40;;;;;;5136363;27;20501;-60
2021/09/20 10:59:31;;;;;;;6.17;4.03;;;17.80;93.60;;;;;;5136218;27;20467;-58
2021/09/20 11:02:13;;;;;;;3.70;3.40;;;17.80;93.80;;;;;;5136092;27;20804;-61
2021/09/20 11:04:42;;;;;;;5.10;3.67;;;17.80;93.90;;;;;;5136223;27;20473;-60
2021/09/20 11:07:19;;;;;;;7.33;3.77;;;17.80;93.90;;;;;;5135733;27;20452;-60
2021/09/20 11:10:08;;;;;;;3.60;3.30;;;17.80;93.90;;;;;;5136266;27;20483;-60
2021/09/20 11:12:39;;;;;;;3.63;3.00;;;17.70;93.60;;;;;;5123310;27;20468;-59
2021/09/20 11:15:15;;;;;;;4.83;3.40;;;17.70;93.80;;;;;;5136018;27;20497;-60
2021/09/20 11:17:48;;;;;;;5.77;3.00;;;17.60;94.00;;;;;;5134927;27;20460;-59
2021/09/20 11:20:36;;;;;;;3.50;3.20;;;17.60;93.90;;;;;;5135577;27;20459;-60
2021/09/20 11:23:25;;;;;;;2.70;2.30;;;17.60;93.70;;;;;;5126663;27;20526;-58
2021/09/20 11:26:06;;;;;;;3.60;3.30;;;17.50;93.50;;;;;;5135681;27;20452;-59
2021/09/20 11:28:34;;;;;;;2.77;2.50;;;17.50;93.80;;;;;;5129094;27;20474;-59
2021/09/20 11:31:00;;;;;;;3.00;2.70;;;17.50;95.70;;;;;;5115703;27;20468;-58
2021/09/20 11:33:35;;;;;;;3.77;3.03;;;17.50;95.30;;;;;;5134324;27;20474;-60
2021/09/20 11:36:21;;;;;;;5.20;3.40;;;17.50;94.30;;;;;;5126832;27;20504;-58
2021/09/20 11:38:49;;;;;;;5.90;3.30;;;17.50;93.70;;;;;;5123512;27;20550;-60
2021/09/20 11:41:23;;;;;;;3.30;3.00;;;17.50;93.90;;;;;;5133041;27;20482;-59
2021/09/20 11:43:53;;;;;;;4.03;3.00;;;17.50;94.00;;;;;;5130642;27;20469;-60
2021/09/20 11:46:22;;;;;;;4.20;3.57;;;17.50;94.10;;;;;;5126107;27;21251;-59
2021/09/20 11:49:00;;;;;;;5.00;3.70;;;17.50;94.10;;;;;;5129718;27;20469;-60
2021/09/20 11:51:28;;;;;;;5.73;3.33;;;17.50;94.10;;;;;;5127095;27;20475;-60
2021/09/20 11:53:55;;;;;;;3.73;3.33;;;17.50;94.30;;;;;;5129628;27;20468;-59
2021/09/20 11:56:27;;;;;;;4.60;4.20;;;17.50;94.40;;;;;;5119781;27;20475;-58
2021/09/20 11:58:56;;;;;;;4.27;3.87;;;17.50;94.50;;;;;;5129706;27;20482;-60
2021/09/20 12:01:25;;;;;;;4.93;4.20;;;17.60;94.80;;;;;;5133627;27;20467;-60
2021/09/20 12:03:53;;;;;;;4.70;4.30;;;17.60;94.60;;;;;;5125523;27;20467;-58
2021/09/20 12:06:26;;;;;;;16.63;11.80;;;17.60;94.50;;;;;;5124833;27;20477;-58
2021/09/20 12:08:57;;;;;;;8.20;6.30;;;17.70;95.10;;;;;;5123567;27;20824;-58
2021/09/20 12:11:25;;;;;;;18.03;14.30;;;17.70;95.00;;;;;;5133223;27;20791;-59
2021/09/20 12:13:52;;;;;;;13.43;11.73;;;17.80;96.60;;;;;;5130075;27;20498;-59
2021/09/20 12:16:19;;;;;;;7.70;6.93;;;17.90;95.90;;;;;;5131664;27;20475;-60
2021/09/20 12:18:46;;;;;;;5.23;3.80;;;17.90;95.50;;;;;;5134264;27;20824;-60
2021/09/20 12:21:15;;;;;;;3.63;3.33;;;18.00;95.20;;;;;;5133160;27;20808;-60
2021/09/20 12:23:44;;;;;;;7.07;6.37;;;18.00;94.30;;;;;;5123443;27;20460;-58
2021/09/20 12:26:14;;;;;;;4.83;4.33;;;18.00;94.10;;;;;;5133153;27;20452;-58
2021/09/20 12:28:44;;;;;;;4.40;3.97;;;18.00;94.10;;;;;;5133187;27;20464;-58
2021/09/20 12:31:12;;;;;;;3.27;3.07;;;18.10;94.10;;;;;;5132797;27;21100;-57
2021/09/20 12:33:54;;;;;;;4.63;4.23;;;18.10;94.20;;;;;;5119995;27;20538;-59
2021/09/20 12:36:25;;;;;;;4.40;3.60;;;18.00;94.20;;;;;;5134020;27;20467;-58
2021/09/20 12:39:06;;;;;;;6.10;3.40;;;18.10;94.00;;;;;;5133387;27;20953;-58
2021/09/20 12:41:38;;;;;;;9.53;8.33;;;18.10;92.50;;;;;;5133933;27;21556;-59
2021/09/20 12:44:06;;;;;;;4.43;3.97;;;18.10;92.00;;;;;;5134291;27;20478;-59
2021/09/20 12:46:34;;;;;;;5.67;4.50;;;18.00;91.60;;;;;;5132225;27;20618;-58
2021/09/20 12:49:02;;;;;;;4.53;4.13;;;18.00;91.30;;;;;;5129794;27;20481;-61
2021/09/20 12:51:35;;;;;;;4.63;3.67;;;18.00;91.50;;;;;;5133775;27;20462;-59
2021/09/20 12:54:02;;;;;;;3.77;3.47;;;18.00;91.50;;;;;;5134211;27;20855;-59